sensor_id;sensor_type;location;lat;lon;timestamp;pressure;altitude;pressure_sealevel;temperature;humidity
16451;BME280;12243;42.708;23.310;2023-03-13T00:01:48;95268.59;;;1.76;69.42
16451;BME280;12243;42.708;23.310;2023-03-13T00:04:17;95271.03;;;1.79;69.69
16451;BME280;12243;42.708;23.310;2023-03-13T00:06:44;95262.84;;;1.71;69.75
16451;BME280;12243;42.708;23.310;2023-03-13T00:09:13;95270.81;;;1.65;70.30
16451;BME280;12243;42.708;23.310;2023-03-13T00:11:41;95270.81;;;1.65;70.64
16451;BME280;12243;42.708;23.310;2023-03-13T00:14:09;95282.53;;;1.71;70.01
16451;BME280;12243;42.708;23.310;2023-03-13T00:16:36;95274.13;;;1.67;70.24
16451;BME280;12243;42.708;23.310;2023-03-13T00:19:04;95277.91;;;1.79;70.07
16451;BME280;12243;42.708;23.310;2023-03-13T00:21:33;95290.38;;;1.67;70.24
16451;BME280;12243;42.708;23.310;2023-03-13T00:24:02;95292.19;;;1.65;70.62
16451;BME280;12243;42.708;23.310;2023-03-13T00:26:29;95283.91;;;1.78;69.61
16451;BME280;12243;42.708;23.310;2023-03-13T00:28:56;95286.22;;;1.65;70.02
16451;BME280;12243;42.708;23.310;2023-03-13T00:31:26;95292.66;;;1.55;70.33
16451;BME280;12243;42.708;23.310;2023-03-13T00:33:55;95287.88;;;1.66;70.41
16451;BME280;12243;42.708;23.310;2023-03-13T00:36:24;95290.69;;;1.60;69.30
16451;BME280;12243;42.708;23.310;2023-03-13T00:38:54;95286.25;;;1.63;68.81
16451;BME280;12243;42.708;23.310;2023-03-13T00:41:23;95287.38;;;1.58;69.16
16451;BME280;12243;42.708;23.310;2023-03-13T00:43:50;95291.53;;;1.60;69.06
16451;BME280;12243;42.708;23.310;2023-03-13T00:46:19;95286.59;;;1.56;68.83
16451;BME280;12243;42.708;23.310;2023-03-13T00:48:46;95296.38;;;1.48;69.30
16451;BME280;12243;42.708;23.310;2023-03-13T00:51:14;95287.03;;;1.47;70.03
16451;BME280;12243;42.708;23.310;2023-03-13T00:53:43;95286.75;;;1.53;69.55
16451;BME280;12243;42.708;23.310;2023-03-13T00:56:12;95289.31;;;1.53;68.95
16451;BME280;12243;42.708;23.310;2023-03-13T00:58:41;95284.59;;;1.43;69.08
16451;BME280;12243;42.708;23.310;2023-03-13T01:01:10;95282.78;;;1.46;68.96
16451;BME280;12243;42.708;23.310;2023-03-13T01:03:39;95285.59;;;1.39;69.79
16451;BME280;12243;42.708;23.310;2023-03-13T01:06:09;95278.94;;;1.35;69.65
16451;BME280;12243;42.708;23.310;2023-03-13T01:08:36;95275.34;;;1.39;69.40
16451;BME280;12243;42.708;23.310;2023-03-13T01:11:06;95275.34;;;1.39;69.75
16451;BME280;12243;42.708;23.310;2023-03-13T01:13:34;95275.88;;;1.27;70.23
16451;BME280;12243;42.708;23.310;2023-03-13T01:16:03;95276.00;;;1.24;71.10
16451;BME280;12243;42.708;23.310;2023-03-13T01:18:30;95279.75;;;1.17;71.19
16451;BME280;12243;42.708;23.310;2023-03-13T01:20:57;95277.53;;;1.28;71.48
16451;BME280;12243;42.708;23.310;2023-03-13T01:23:25;95272.28;;;1.31;71.27
16451;BME280;12243;42.708;23.310;2023-03-13T01:25:53;95285.09;;;1.31;71.55
16451;BME280;12243;42.708;23.310;2023-03-13T01:28:20;95284.06;;;1.35;71.15
16451;BME280;12243;42.708;23.310;2023-03-13T01:30:48;95287.34;;;1.39;71.16
16451;BME280;12243;42.708;23.310;2023-03-13T01:33:15;95291.31;;;1.46;70.97
16451;BME280;12243;42.708;23.310;2023-03-13T01:35:42;95287.41;;;1.37;70.90
16451;BME280;12243;42.708;23.310;2023-03-13T01:38:09;95300.25;;;1.37;70.83
16451;BME280;12243;42.708;23.310;2023-03-13T01:40:40;95296.16;;;1.33;71.00
16451;BME280;12243;42.708;23.310;2023-03-13T01:43:19;95305.00;;;1.26;71.29
16451;BME280;12243;42.708;23.310;2023-03-13T01:45:57;95298.47;;;1.19;72.06
16451;BME280;12243;42.708;23.310;2023-03-13T01:48:35;95305.38;;;1.17;72.26
16451;BME280;12243;42.708;23.310;2023-03-13T01:51:05;95303.78;;;1.14;72.89
16451;BME280;12243;42.708;23.310;2023-03-13T01:53:34;95304.47;;;1.18;72.14
16451;BME280;12243;42.708;23.310;2023-03-13T01:56:05;95307.03;;;1.18;72.15
16451;BME280;12243;42.708;23.310;2023-03-13T01:58:34;95307.03;;;1.18;72.40
16451;BME280;12243;42.708;23.310;2023-03-13T02:01:04;95301.78;;;1.21;72.77
16451;BME280;12243;42.708;23.310;2023-03-13T02:03:32;95302.38;;;1.28;72.13
16451;BME280;12243;42.708;23.310;2023-03-13T02:06:01;95299.09;;;1.24;71.98
16451;BME280;12243;42.708;23.310;2023-03-13T02:08:32;95296.22;;;1.11;72.39
16451;BME280;12243;42.708;23.310;2023-03-13T02:11:09;95298.97;;;1.07;72.56
16451;BME280;12243;42.708;23.310;2023-03-13T02:13:38;95304.94;;;1.07;72.96
16451;BME280;12243;42.708;23.310;2023-03-13T02:16:07;95314.22;;;1.10;72.45
16451;BME280;12243;42.708;23.310;2023-03-13T02:18:35;95320.91;;;1.14;72.41
16451;BME280;12243;42.708;23.310;2023-03-13T02:21:09;95313.75;;;1.22;72.41
16451;BME280;12243;42.708;23.310;2023-03-13T02:23:41;95322.56;;;1.15;72.42
16451;BME280;12243;42.708;23.310;2023-03-13T02:26:14;95328.03;;;1.28;71.52
16451;BME280;12243;42.708;23.310;2023-03-13T02:28:41;95326.28;;;1.08;70.99
16451;BME280;12243;42.708;23.310;2023-03-13T02:31:12;95336.03;;;1.00;72.26
16451;BME280;12243;42.708;23.310;2023-03-13T02:33:40;95345.91;;;0.88;72.96
16451;BME280;12243;42.708;23.310;2023-03-13T02:36:12;95348.69;;;0.82;74.10
16451;BME280;12243;42.708;23.310;2023-03-13T02:38:44;95350.47;;;0.80;74.62
16451;BME280;12243;42.708;23.310;2023-03-13T02:41:15;95351.44;;;0.78;74.87
16451;BME280;12243;42.708;23.310;2023-03-13T02:43:43;95353.78;;;0.84;75.06
16451;BME280;12243;42.708;23.310;2023-03-13T02:46:12;95362.97;;;0.67;76.22
16451;BME280;12243;42.708;23.310;2023-03-13T02:48:44;95370.84;;;0.63;76.80
16451;BME280;12243;42.708;23.310;2023-03-13T02:51:17;95372.97;;;0.52;77.06
16451;BME280;12243;42.708;23.310;2023-03-13T02:53:45;95366.41;;;0.44;77.57
16451;BME280;12243;42.708;23.310;2023-03-13T02:56:18;95372.88;;;0.31;77.67
16451;BME280;12243;42.708;23.310;2023-03-13T02:58:46;95378.25;;;0.25;78.38
16451;BME280;12243;42.708;23.310;2023-03-13T03:01:13;95375.13;;;0.17;79.06
16451;BME280;12243;42.708;23.310;2023-03-13T03:03:41;95367.81;;;0.08;79.25
16451;BME280;12243;42.708;23.310;2023-03-13T03:06:08;95373.13;;;0.02;79.69
16451;BME280;12243;42.708;23.310;2023-03-13T03:08:35;95377.03;;;0.12;79.64
16451;BME280;12243;42.708;23.310;2023-03-13T03:11:06;95366.09;;;0.07;79.71
16451;BME280;12243;42.708;23.310;2023-03-13T03:13:35;95375.91;;;0.19;78.88
16451;BME280;12243;42.708;23.310;2023-03-13T03:16:07;95387.09;;;0.16;78.53
16451;BME280;12243;42.708;23.310;2023-03-13T03:18:34;95394.13;;;0.11;78.71
16451;BME280;12243;42.708;23.310;2023-03-13T03:21:04;95402.56;;;0.13;78.99
16451;BME280;12243;42.708;23.310;2023-03-13T03:23:35;95406.03;;;0.12;78.69
16451;BME280;12243;42.708;23.310;2023-03-13T03:26:04;95406.75;;;-0.08;79.53
16451;BME280;12243;42.708;23.310;2023-03-13T03:28:31;95413.56;;;-0.07;79.60
16451;BME280;12243;42.708;23.310;2023-03-13T03:31:07;95407.19;;;-0.20;79.66
16451;BME280;12243;42.708;23.310;2023-03-13T03:33:36;95400.72;;;-0.30;80.60
16451;BME280;12243;42.708;23.310;2023-03-13T03:36:07;95408.59;;;-0.36;81.43
16451;BME280;12243;42.708;23.310;2023-03-13T03:38:35;95410.41;;;-0.38;81.53
16451;BME280;12243;42.708;23.310;2023-03-13T03:41:04;95414.88;;;-0.45;82.26
16451;BME280;12243;42.708;23.310;2023-03-13T03:43:33;95430.53;;;-0.29;81.70
16451;BME280;12243;42.708;23.310;2023-03-13T03:46:01;95441.66;;;-0.30;81.86
16451;BME280;12243;42.708;23.310;2023-03-13T03:48:30;95442.97;;;-0.43;81.46
16451;BME280;12243;42.708;23.310;2023-03-13T03:50:57;95447.41;;;-0.49;82.04
16451;BME280;12243;42.708;23.310;2023-03-13T03:53:24;95440.66;;;-0.51;82.69
16451;BME280;12243;42.708;23.310;2023-03-13T03:55:52;95448.34;;;-0.51;83.18
16451;BME280;12243;42.708;23.310;2023-03-13T03:58:20;95444.41;;;-0.36;81.76
16451;BME280;12243;42.708;23.310;2023-03-13T04:01:04;95449.63;;;-0.39;81.94
16451;BME280;12243;42.708;23.310;2023-03-13T04:03:33;95459.25;;;-0.46;82.17
16451;BME280;12243;42.708;23.310;2023-03-13T04:06:00;95451.81;;;-0.54;82.38
16451;BME280;12243;42.708;23.310;2023-03-13T04:08:28;95458.72;;;-0.56;83.00
16451;BME280;12243;42.708;23.310;2023-03-13T04:10:55;95463.31;;;-0.40;82.26
16451;BME280;12243;42.708;23.310;2023-03-13T04:13:26;95472.00;;;-0.44;82.41
16451;BME280;12243;42.708;23.310;2023-03-13T04:15:53;95477.03;;;-0.41;82.56
16451;BME280;12243;42.708;23.310;2023-03-13T04:18:20;95483.31;;;-0.52;83.13
16451;BME280;12243;42.708;23.310;2023-03-13T04:20:48;95481.41;;;-0.45;81.86
16451;BME280;12243;42.708;23.310;2023-03-13T04:23:15;95482.53;;;-0.54;81.88
16451;BME280;12243;42.708;23.310;2023-03-13T04:25:42;95484.63;;;-0.40;82.26
16451;BME280;12243;42.708;23.310;2023-03-13T04:28:11;95490.16;;;-0.52;81.99
16451;BME280;12243;42.708;23.310;2023-03-13T04:30:42;95489.31;;;-0.53;82.99
16451;BME280;12243;42.708;23.310;2023-03-13T04:33:31;95488.47;;;-0.53;82.80
16451;BME280;12243;42.708;23.310;2023-03-13T04:36:08;95506.34;;;-0.52;83.26
16451;BME280;12243;42.708;23.310;2023-03-13T04:38:55;95519.63;;;-0.40;81.73
16451;BME280;12243;42.708;23.310;2023-03-13T04:41:36;95523.16;;;-0.44;81.85
16451;BME280;12243;42.708;23.310;2023-03-13T04:44:11;95524.63;;;-0.37;81.98
16451;BME280;12243;42.708;23.310;2023-03-13T04:46:58;95522.00;;;-0.36;81.30
16451;BME280;12243;42.708;23.310;2023-03-13T04:49:47;95524.44;;;-0.31;80.93
16451;BME280;12243;42.708;23.310;2023-03-13T04:52:40;95530.22;;;-0.26;80.49
16451;BME280;12243;42.708;23.310;2023-03-13T04:55:32;95519.63;;;-0.40;81.21
16451;BME280;12243;42.708;23.310;2023-03-13T04:58:23;95521.44;;;-0.44;81.79
16451;BME280;12243;42.708;23.310;2023-03-13T05:01:10;95529.06;;;-0.42;81.86
16451;BME280;12243;42.708;23.310;2023-03-13T05:03:56;95535.91;;;-0.43;82.44
16451;BME280;12243;42.708;23.310;2023-03-13T05:06:37;95521.59;;;-0.49;82.96
16451;BME280;12243;42.708;23.310;2023-03-13T05:09:06;95522.38;;;-0.46;83.00
16451;BME280;12243;42.708;23.310;2023-03-13T05:11:59;95528.56;;;-0.27;82.71
16451;BME280;12243;42.708;23.310;2023-03-13T05:14:48;95540.94;;;-0.15;81.36
16451;BME280;12243;42.708;23.310;2023-03-13T05:17:33;95548.53;;;-0.12;80.15
16451;BME280;12243;42.708;23.310;2023-03-13T05:20:22;95552.56;;;-0.05;80.30
16451;BME280;12243;42.708;23.310;2023-03-13T05:23:09;95554.13;;;-0.01;79.75
16451;BME280;12243;42.708;23.310;2023-03-13T05:25:56;95554.34;;;0.18;79.82
16451;BME280;12243;42.708;23.310;2023-03-13T05:28:51;95561.97;;;0.20;79.29
16451;BME280;12243;42.708;23.310;2023-03-13T05:31:28;95556.09;;;0.41;77.64
16451;BME280;12243;42.708;23.310;2023-03-13T05:33:55;95559.66;;;0.37;77.23
16451;BME280;12243;42.708;23.310;2023-03-13T05:36:50;95558.81;;;0.37;78.46
16451;BME280;12243;42.708;23.310;2023-03-13T05:39:49;95562.56;;;0.52;78.21
16451;BME280;12243;42.708;23.310;2023-03-13T05:42:20;95569.00;;;0.63;77.48
16451;BME280;12243;42.708;23.310;2023-03-13T05:44:58;95565.16;;;0.75;75.87
16451;BME280;12243;42.708;23.310;2023-03-13T05:47:45;95571.13;;;0.76;76.09
16451;BME280;12243;42.708;23.310;2023-03-13T05:50:32;95576.44;;;0.69;75.69
16451;BME280;12243;42.708;23.310;2023-03-13T05:53:13;95576.84;;;0.59;76.53
16451;BME280;12243;42.708;23.310;2023-03-13T05:55:59;95579.09;;;0.91;75.33
16451;BME280;12243;42.708;23.310;2023-03-13T05:59:03;95583.81;;;1.02;75.39
16451;BME280;12243;42.708;23.310;2023-03-13T06:01:33;95586.72;;;1.16;75.00
16451;BME280;12243;42.708;23.310;2023-03-13T06:04:05;95589.47;;;1.34;74.03
16451;BME280;12243;42.708;23.310;2023-03-13T06:06:34;95593.25;;;1.47;72.93
16451;BME280;12243;42.708;23.310;2023-03-13T06:09:01;95588.88;;;1.49;72.46
16451;BME280;12243;42.708;23.310;2023-03-13T06:11:31;95582.97;;;1.47;73.27
16451;BME280;12243;42.708;23.310;2023-03-13T06:13:58;95586.00;;;1.57;74.00
16451;BME280;12243;42.708;23.310;2023-03-13T06:16:35;95582.19;;;1.89;73.38
16451;BME280;12243;42.708;23.310;2023-03-13T06:19:21;95591.34;;;1.95;73.23
16451;BME280;12243;42.708;23.310;2023-03-13T06:21:50;95587.38;;;2.08;72.87
16451;BME280;12243;42.708;23.310;2023-03-13T06:24:17;95584.84;;;2.28;72.00
16451;BME280;12243;42.708;23.310;2023-03-13T06:26:46;95592.34;;;2.33;71.08
16451;BME280;12243;42.708;23.310;2023-03-13T06:29:14;95585.28;;;2.38;71.72
16451;BME280;12243;42.708;23.310;2023-03-13T06:31:42;95585.59;;;2.51;71.63
16451;BME280;12243;42.708;23.310;2023-03-13T06:34:10;95576.72;;;2.58;70.77
16451;BME280;12243;42.708;23.310;2023-03-13T06:36:37;95564.25;;;2.69;71.06
16451;BME280;12243;42.708;23.310;2023-03-13T06:39:04;95570.38;;;2.85;70.25
16451;BME280;12243;42.708;23.310;2023-03-13T06:41:31;95575.94;;;2.95;69.03
16451;BME280;12243;42.708;23.310;2023-03-13T06:43:58;95587.66;;;3.21;68.91
16451;BME280;12243;42.708;23.310;2023-03-13T06:46:26;95592.34;;;3.30;67.22
16451;BME280;12243;42.708;23.310;2023-03-13T06:48:54;95576.41;;;3.41;67.64
16451;BME280;12243;42.708;23.310;2023-03-13T06:51:21;95581.94;;;3.52;66.65
16451;BME280;12243;42.708;23.310;2023-03-13T06:53:48;95579.81;;;3.42;65.12
16451;BME280;12243;42.708;23.310;2023-03-13T06:56:17;95587.34;;;3.27;65.33
16451;BME280;12243;42.708;23.310;2023-03-13T06:58:46;95566.56;;;3.32;66.00
16451;BME280;12243;42.708;23.310;2023-03-13T07:01:15;95577.88;;;3.47;66.35
16451;BME280;12243;42.708;23.310;2023-03-13T07:03:43;95575.78;;;3.55;65.27
16451;BME280;12243;42.708;23.310;2023-03-13T07:06:11;95575.50;;;3.61;66.10
16451;BME280;12243;42.708;23.310;2023-03-13T07:08:38;95571.28;;;3.77;63.86
16451;BME280;12243;42.708;23.310;2023-03-13T07:11:07;95571.81;;;3.67;63.05
16451;BME280;12243;42.708;23.310;2023-03-13T07:13:34;95574.91;;;3.56;63.84
16451;BME280;12243;42.708;23.310;2023-03-13T07:16:03;95573.97;;;3.38;64.50
16451;BME280;12243;42.708;23.310;2023-03-13T07:18:31;95561.84;;;3.59;65.18
16451;BME280;12243;42.708;23.310;2023-03-13T07:21:00;95563.88;;;3.89;65.59
16451;BME280;12243;42.708;23.310;2023-03-13T07:23:31;95566.75;;;4.00;63.69
16451;BME280;12243;42.708;23.310;2023-03-13T07:26:01;95559.94;;;4.34;63.57
16451;BME280;12243;42.708;23.310;2023-03-13T07:28:29;95568.13;;;4.42;63.51
16451;BME280;12243;42.708;23.310;2023-03-13T07:31:03;95564.84;;;4.56;62.98
16451;BME280;12243;42.708;23.310;2023-03-13T07:33:30;95554.22;;;4.62;61.77
16451;BME280;12243;42.708;23.310;2023-03-13T07:35:57;95559.59;;;4.74;61.82
16451;BME280;12243;42.708;23.310;2023-03-13T07:38:24;95565.03;;;4.86;61.38
16451;BME280;12243;42.708;23.310;2023-03-13T07:40:54;95556.63;;;4.98;59.31
16451;BME280;12243;42.708;23.310;2023-03-13T07:43:21;95560.63;;;5.04;58.33
16451;BME280;12243;42.708;23.310;2023-03-13T07:45:50;95574.41;;;5.20;58.80
16451;BME280;12243;42.708;23.310;2023-03-13T07:48:17;95566.09;;;5.31;57.67
16451;BME280;12243;42.708;23.310;2023-03-13T07:50:44;95568.47;;;5.18;58.27
16451;BME280;12243;42.708;23.310;2023-03-13T07:53:11;95560.97;;;5.29;58.80
16451;BME280;12243;42.708;23.310;2023-03-13T07:55:38;95554.50;;;5.38;59.15
16451;BME280;12243;42.708;23.310;2023-03-13T07:58:06;95549.47;;;5.66;57.92
16451;BME280;12243;42.708;23.310;2023-03-13T08:00:33;95559.03;;;5.96;56.64
16451;BME280;12243;42.708;23.310;2023-03-13T08:03:00;95553.78;;;5.97;56.06
16451;BME280;12243;42.708;23.310;2023-03-13T08:05:29;95548.59;;;5.82;55.74
16451;BME280;12243;42.708;23.310;2023-03-13T08:07:55;95544.59;;;5.92;56.14
16451;BME280;12243;42.708;23.310;2023-03-13T08:10:22;95544.31;;;6.12;55.34
16451;BME280;12243;42.708;23.310;2023-03-13T08:12:49;95541.69;;;6.28;54.08
16451;BME280;12243;42.708;23.310;2023-03-13T08:15:18;95549.16;;;6.18;54.53
16451;BME280;12243;42.708;23.310;2023-03-13T08:17:50;95535.09;;;6.08;54.04
16451;BME280;12243;42.708;23.310;2023-03-13T08:20:17;95544.59;;;5.92;55.24
16451;BME280;12243;42.708;23.310;2023-03-13T08:22:44;95548.84;;;6.09;55.23
16451;BME280;12243;42.708;23.310;2023-03-13T08:25:12;95543.53;;;6.26;54.45
16451;BME280;12243;42.708;23.310;2023-03-13T08:27:39;95551.88;;;6.31;54.56
16451;BME280;12243;42.708;23.310;2023-03-13T08:30:07;95548.28;;;6.48;54.73
16451;BME280;12243;42.708;23.310;2023-03-13T08:32:36;95550.44;;;6.70;52.90
16451;BME280;12243;42.708;23.310;2023-03-13T08:35:03;95551.44;;;6.53;52.32
16451;BME280;12243;42.708;23.310;2023-03-13T08:37:30;95559.38;;;6.64;52.45
16451;BME280;12243;42.708;23.310;2023-03-13T08:39:57;95554.56;;;6.58;51.99
16451;BME280;12243;42.708;23.310;2023-03-13T08:42:24;95549.22;;;6.61;51.72
16451;BME280;12243;42.708;23.310;2023-03-13T08:44:51;95545.91;;;6.59;52.08
16451;BME280;12243;42.708;23.310;2023-03-13T08:47:18;95547.19;;;6.95;51.72
16451;BME280;12243;42.708;23.310;2023-03-13T08:49:46;95546.84;;;7.01;51.29
16451;BME280;12243;42.708;23.310;2023-03-13T08:52:13;95544.78;;;7.21;50.65
16451;BME280;12243;42.708;23.310;2023-03-13T08:54:40;95540.59;;;7.32;50.06
16451;BME280;12243;42.708;23.310;2023-03-13T08:57:07;95538.00;;;7.32;50.41
16451;BME280;12243;42.708;23.310;2023-03-13T08:59:33;95543.63;;;7.53;50.82
16451;BME280;12243;42.708;23.310;2023-03-13T09:02:00;95536.50;;;7.70;50.01
16451;BME280;12243;42.708;23.310;2023-03-13T09:04:28;95542.06;;;7.91;49.22
16451;BME280;12243;42.708;23.310;2023-03-13T09:06:56;95540.31;;;8.31;49.26
16451;BME280;12243;42.708;23.310;2023-03-13T09:09:23;95539.72;;;8.40;48.52
16451;BME280;12243;42.708;23.310;2023-03-13T09:11:50;95536.84;;;8.57;48.26
16451;BME280;12243;42.708;23.310;2023-03-13T09:14:17;95526.47;;;8.83;47.24
16451;BME280;12243;42.708;23.310;2023-03-13T09:16:44;95532.88;;;9.03;46.80
16451;BME280;12243;42.708;23.310;2023-03-13T09:19:12;95529.97;;;9.07;45.81
16451;BME280;12243;42.708;23.310;2023-03-13T09:21:40;95522.47;;;9.16;46.54
16451;BME280;12243;42.708;23.310;2023-03-13T09:24:08;95523.47;;;9.39;45.40
16451;BME280;12243;42.708;23.310;2023-03-13T09:26:35;95524.44;;;9.25;45.57
16451;BME280;12243;42.708;23.310;2023-03-13T09:29:02;95525.47;;;9.10;50.20
16451;BME280;12243;42.708;23.310;2023-03-13T09:31:30;95529.16;;;8.94;45.78
16451;BME280;12243;42.708;23.310;2023-03-13T09:33:57;95537.47;;;8.74;46.43
16451;BME280;12243;42.708;23.310;2023-03-13T09:36:24;95541.81;;;8.61;46.91
16451;BME280;12243;42.708;23.310;2023-03-13T09:38:53;95522.31;;;8.93;46.91
16451;BME280;12243;42.708;23.310;2023-03-13T09:41:30;95522.31;;;9.30;46.64
16451;BME280;12243;42.708;23.310;2023-03-13T09:44:02;95523.81;;;9.58;45.15
16451;BME280;12243;42.708;23.310;2023-03-13T09:46:36;95516.69;;;9.36;45.53
16451;BME280;12243;42.708;23.310;2023-03-13T09:49:10;95507.88;;;9.63;45.52
16451;BME280;12243;42.708;23.310;2023-03-13T09:51:41;95513.09;;;9.87;45.37
16451;BME280;12243;42.708;23.310;2023-03-13T09:54:19;95512.78;;;10.02;44.70
16451;BME280;12243;42.708;23.310;2023-03-13T09:56:53;95516.00;;;10.30;44.47
16451;BME280;12243;42.708;23.310;2023-03-13T09:59:28;95511.91;;;10.50;44.12
16451;BME280;12243;42.708;23.310;2023-03-13T10:01:58;95503.53;;;10.80;42.55
16451;BME280;12243;42.708;23.310;2023-03-13T10:04:29;95510.88;;;10.75;42.34
16451;BME280;12243;42.708;23.310;2023-03-13T10:06:58;95501.97;;;10.66;41.50
16451;BME280;12243;42.708;23.310;2023-03-13T10:09:28;95503.75;;;10.55;42.19
16451;BME280;12243;42.708;23.310;2023-03-13T10:12:04;95503.69;;;10.32;43.32
16451;BME280;12243;42.708;23.310;2023-03-13T10:14:38;95490.34;;;10.48;43.84
16451;BME280;12243;42.708;23.310;2023-03-13T10:17:14;95483.16;;;10.74;42.02
16451;BME280;12243;42.708;23.310;2023-03-13T10:19:43;95474.41;;;10.75;42.36
16451;BME280;12243;42.708;23.310;2023-03-13T10:22:15;95466.09;;;10.92;42.20
16451;BME280;12243;42.708;23.310;2023-03-13T10:24:46;95469.66;;;11.14;41.48
16451;BME280;12243;42.708;23.310;2023-03-13T10:27:16;95464.16;;;11.28;41.03
16451;BME280;12243;42.708;23.310;2023-03-13T10:29:43;95457.88;;;11.31;41.39
16451;BME280;12243;42.708;23.310;2023-03-13T10:32:12;95454.22;;;11.22;41.57
16451;BME280;12243;42.708;23.310;2023-03-13T10:34:51;95453.41;;;11.21;41.14
16451;BME280;12243;42.708;23.310;2023-03-13T10:37:21;95443.81;;;11.11;40.88
16451;BME280;12243;42.708;23.310;2023-03-13T10:39:48;95439.22;;;10.58;41.89
16451;BME280;12243;42.708;23.310;2023-03-13T10:42:25;95433.66;;;10.63;42.24
16451;BME280;12243;42.708;23.310;2023-03-13T10:44:57;95427.72;;;10.94;42.27
16451;BME280;12243;42.708;23.310;2023-03-13T10:47:25;95427.50;;;10.75;41.67
16451;BME280;12243;42.708;23.310;2023-03-13T10:49:56;95426.44;;;10.78;42.90
16451;BME280;12243;42.708;23.310;2023-03-13T10:52:40;95428.41;;;11.08;41.66
16451;BME280;12243;42.708;23.310;2023-03-13T10:55:10;95428.16;;;11.33;42.17
16451;BME280;12243;42.708;23.310;2023-03-13T10:57:40;95428.16;;;11.33;40.92
16451;BME280;12243;42.708;23.310;2023-03-13T11:00:34;95414.00;;;11.36;41.15
16451;BME280;12243;42.708;23.310;2023-03-13T11:03:05;95407.84;;;11.69;40.77
16451;BME280;12243;42.708;23.310;2023-03-13T11:05:37;95414.13;;;11.99;39.50
16451;BME280;12243;42.708;23.310;2023-03-13T11:08:15;95398.91;;;11.83;40.37
16451;BME280;12243;42.708;23.310;2023-03-13T11:10:51;95395.69;;;11.90;39.94
16451;BME280;12243;42.708;23.310;2023-03-13T11:13:29;95397.53;;;12.00;39.00
16451;BME280;12243;42.708;23.310;2023-03-13T11:16:15;95389.50;;;11.91;39.83
16451;BME280;12243;42.708;23.310;2023-03-13T11:18:54;95397.66;;;11.98;38.82
16451;BME280;12243;42.708;23.310;2023-03-13T11:21:32;95384.53;;;11.88;39.35
16451;BME280;12243;42.708;23.310;2023-03-13T11:24:09;95387.72;;;11.60;40.22
16451;BME280;12243;42.708;23.310;2023-03-13T11:26:44;95385.97;;;11.81;39.85
16451;BME280;12243;42.708;23.310;2023-03-13T11:29:18;95381.16;;;11.98;39.63
16451;BME280;12243;42.708;23.310;2023-03-13T11:31:51;95375.06;;;12.08;39.09
16451;BME280;12243;42.708;23.310;2023-03-13T11:34:22;95365.25;;;12.22;38.54
16451;BME280;12243;42.708;23.310;2023-03-13T11:36:56;95358.13;;;12.33;39.67
16451;BME280;12243;42.708;23.310;2023-03-13T11:39:39;95365.72;;;12.36;38.00
16451;BME280;12243;42.708;23.310;2023-03-13T11:42:22;95356.31;;;12.24;37.89
16451;BME280;12243;42.708;23.310;2023-03-13T11:45:03;95351.97;;;12.34;38.26
16451;BME280;12243;42.708;23.310;2023-03-13T11:47:43;95338.97;;;12.13;39.04
16451;BME280;12243;42.708;23.310;2023-03-13T11:50:29;95341.59;;;12.23;39.15
16451;BME280;12243;42.708;23.310;2023-03-13T11:53:09;95332.53;;;12.58;38.97
16451;BME280;12243;42.708;23.310;2023-03-13T11:55:51;95327.28;;;12.58;38.35
16451;BME280;12243;42.708;23.310;2023-03-13T11:58:37;95325.50;;;12.58;39.25
16451;BME280;12243;42.708;23.310;2023-03-13T12:01:11;95324.31;;;12.72;38.83
16451;BME280;12243;42.708;23.310;2023-03-13T12:03:43;95313.47;;;12.86;37.70
16451;BME280;12243;42.708;23.310;2023-03-13T12:06:22;95312.13;;;12.92;37.77
16451;BME280;12243;42.708;23.310;2023-03-13T12:08:52;95304.66;;;12.78;37.87
16451;BME280;12243;42.708;23.310;2023-03-13T12:11:24;95306.25;;;12.50;37.74
16451;BME280;12243;42.708;23.310;2023-03-13T12:13:56;95295.53;;;12.53;38.09
16451;BME280;12243;42.708;23.310;2023-03-13T12:16:35;95294.59;;;12.63;37.62
16451;BME280;12243;42.708;23.310;2023-03-13T12:19:03;95297.03;;;12.46;38.91
16451;BME280;12243;42.708;23.310;2023-03-13T12:21:36;95292.09;;;12.62;38.77
16451;BME280;12243;42.708;23.310;2023-03-13T12:24:09;95299.25;;;12.60;37.89
16451;BME280;12243;42.708;23.310;2023-03-13T12:26:43;95291.28;;;12.52;38.13
16451;BME280;12243;42.708;23.310;2023-03-13T12:29:15;95292.66;;;12.56;38.33
16451;BME280;12243;42.708;23.310;2023-03-13T12:31:50;95284.69;;;12.67;37.70
16451;BME280;12243;42.708;23.310;2023-03-13T12:34:21;95281.00;;;12.79;37.47
16451;BME280;12243;42.708;23.310;2023-03-13T12:36:55;95280.06;;;13.00;37.20
16451;BME280;12243;42.708;23.310;2023-03-13T12:39:30;95277.63;;;13.27;36.85
16451;BME280;12243;42.708;23.310;2023-03-13T12:42:11;95280.25;;;13.47;37.06
16451;BME280;12243;42.708;23.310;2023-03-13T12:44:39;95277.84;;;13.73;36.22
16451;BME280;12243;42.708;23.310;2023-03-13T12:47:12;95283.63;;;13.76;36.33
16451;BME280;12243;42.708;23.310;2023-03-13T12:52:45;95283.88;;;13.93;35.44
16451;BME280;12243;42.708;23.310;2023-03-13T12:58:27;95275.28;;;14.10;35.14
16451;BME280;12243;42.708;23.310;2023-03-13T13:00:56;95277.06;;;14.19;35.18
16451;BME280;12243;42.708;23.310;2023-03-13T13:03:32;95279.38;;;13.75;34.91
16451;BME280;12243;42.708;23.310;2023-03-13T13:06:06;95278.44;;;13.57;35.79
16451;BME280;12243;42.708;23.310;2023-03-13T13:08:36;95287.94;;;13.58;36.15
16451;BME280;12243;42.708;23.310;2023-03-13T13:11:45;95281.78;;;13.49;35.87
16451;BME280;12243;42.708;23.310;2023-03-13T13:17:25;95279.53;;;13.16;37.26
16451;BME280;12243;42.708;23.310;2023-03-13T13:19:57;95271.16;;;13.31;37.47
16451;BME280;12243;42.708;23.310;2023-03-13T13:22:48;95265.22;;;13.49;36.49
16451;BME280;12243;42.708;23.310;2023-03-13T13:25:28;95270.59;;;13.57;36.69
16451;BME280;12243;42.708;23.310;2023-03-13T13:27:55;95271.72;;;13.25;35.91
16451;BME280;12243;42.708;23.310;2023-03-13T13:30:30;95270.16;;;13.13;36.74